sensor_id;sensor_type;location;lat;lon;timestamp;temperature;humidity
50606;DHT22;36557;53.572;10.170;2023-01-05T00:02:22;9.20;99.90
50606;DHT22;36557;53.572;10.170;2023-01-05T00:04:48;9.30;99.90
50606;DHT22;36557;53.572;10.170;2023-01-05T00:07:14;9.20;99.90
50606;DHT22;36557;53.572;10.170;2023-01-05T00:09:39;9.30;99.90
50606;DHT22;36557;53.572;10.170;2023-01-05T00:12:05;9.30;99.90
50606;DHT22;36557;53.572;10.170;2023-01-05T00:14:49;9.30;99.90
50606;DHT22;36557;53.572;10.170;2023-01-05T00:17:33;9.30;99.90
50606;DHT22;36557;53.572;10.170;2023-01-05T00:20:19;9.40;99.90
50606;DHT22;36557;53.572;10.170;2023-01-05T00:23:04;9.40;99.90
50606;DHT22;36557;53.572;10.170;2023-01-05T00:25:33;9.40;99.90
50606;DHT22;36557;53.572;10.170;2023-01-05T00:28:00;9.40;99.90
50606;DHT22;36557;53.572;10.170;2023-01-05T00:30:46;9.40;99.90
50606;DHT22;36557;53.572;10.170;2023-01-05T00:33:16;9.50;99.90
50606;DHT22;36557;53.572;10.170;2023-01-05T00:35:42;9.40;99.90
50606;DHT22;36557;53.572;10.170;2023-01-05T00:38:08;9.30;99.90
50606;DHT22;36557;53.572;10.170;2023-01-05T00:40:35;9.40;99.90
50606;DHT22;36557;53.572;10.170;2023-01-05T00:43:01;9.40;99.90
50606;DHT22;36557;53.572;10.170;2023-01-05T00:45:26;9.40;99.90
50606;DHT22;36557;53.572;10.170;2023-01-05T00:47:52;9.40;99.90
50606;DHT22;36557;53.572;10.170;2023-01-05T00:50:20;9.40;99.90
50606;DHT22;36557;53.572;10.170;2023-01-05T00:52:46;9.30;99.90
50606;DHT22;36557;53.572;10.170;2023-01-05T00:55:13;9.30;99.90
50606;DHT22;36557;53.572;10.170;2023-01-05T00:57:39;9.40;99.90
50606;DHT22;36557;53.572;10.170;2023-01-05T01:00:06;9.40;99.90
50606;DHT22;36557;53.572;10.170;2023-01-05T01:02:33;9.40;99.90
50606;DHT22;36557;53.572;10.170;2023-01-05T01:04:59;9.30;99.90
50606;DHT22;36557;53.572;10.170;2023-01-05T01:07:25;9.30;99.90
50606;DHT22;36557;53.572;10.170;2023-01-05T01:09:51;9.30;99.90
50606;DHT22;36557;53.572;10.170;2023-01-05T01:12:16;9.30;99.90
50606;DHT22;36557;53.572;10.170;2023-01-05T01:14:46;9.30;99.90
50606;DHT22;36557;53.572;10.170;2023-01-05T01:17:12;9.20;99.90
50606;DHT22;36557;53.572;10.170;2023-01-05T01:19:37;9.30;99.90
50606;DHT22;36557;53.572;10.170;2023-01-05T01:22:03;9.40;99.90
50606;DHT22;36557;53.572;10.170;2023-01-05T01:24:29;9.30;99.90
50606;DHT22;36557;53.572;10.170;2023-01-05T01:26:55;9.30;99.90
50606;DHT22;36557;53.572;10.170;2023-01-05T01:29:21;9.40;99.90
50606;DHT22;36557;53.572;10.170;2023-01-05T01:31:49;9.30;99.90
50606;DHT22;36557;53.572;10.170;2023-01-05T01:34:15;9.30;99.90
50606;DHT22;36557;53.572;10.170;2023-01-05T01:36:41;9.20;99.90
50606;DHT22;36557;53.572;10.170;2023-01-05T01:39:07;9.20;99.90
50606;DHT22;36557;53.572;10.170;2023-01-05T01:41:33;9.20;99.90
50606;DHT22;36557;53.572;10.170;2023-01-05T01:43:59;9.20;99.90
50606;DHT22;36557;53.572;10.170;2023-01-05T01:46:25;9.30;99.90
50606;DHT22;36557;53.572;10.170;2023-01-05T01:49:04;9.30;99.90
50606;DHT22;36557;53.572;10.170;2023-01-05T01:51:41;9.30;99.90
50606;DHT22;36557;53.572;10.170;2023-01-05T01:54:12;9.20;99.90
50606;DHT22;36557;53.572;10.170;2023-01-05T01:56:46;9.20;99.90
50606;DHT22;36557;53.572;10.170;2023-01-05T01:59:14;9.20;99.90
50606;DHT22;36557;53.572;10.170;2023-01-05T02:01:41;9.10;99.90
50606;DHT22;36557;53.572;10.170;2023-01-05T02:04:08;9.20;99.90
50606;DHT22;36557;53.572;10.170;2023-01-05T02:06:36;9.20;99.90
50606;DHT22;36557;53.572;10.170;2023-01-05T02:09:03;9.10;99.90
50606;DHT22;36557;53.572;10.170;2023-01-05T02:25:10;9.00;99.90
50606;DHT22;36557;53.572;10.170;2023-01-05T02:31:07;8.90;99.90
50606;DHT22;36557;53.572;10.170;2023-01-05T02:33:47;9.00;99.90
50606;DHT22;36557;53.572;10.170;2023-01-05T02:39:16;8.90;99.90
50606;DHT22;36557;53.572;10.170;2023-01-05T02:41:58;8.90;99.90
50606;DHT22;36557;53.572;10.170;2023-01-05T02:44:31;8.80;99.90
50606;DHT22;36557;53.572;10.170;2023-01-05T02:47:06;8.80;99.90
50606;DHT22;36557;53.572;10.170;2023-01-05T02:49:36;8.70;99.90
50606;DHT22;36557;53.572;10.170;2023-01-05T02:52:05;8.60;99.90
50606;DHT22;36557;53.572;10.170;2023-01-05T02:54:38;8.70;99.90
50606;DHT22;36557;53.572;10.170;2023-01-05T02:57:13;8.70;99.90
50606;DHT22;36557;53.572;10.170;2023-01-05T02:59:44;8.70;99.90
50606;DHT22;36557;53.572;10.170;2023-01-05T03:02:23;8.60;99.90
50606;DHT22;36557;53.572;10.170;2023-01-05T03:04:57;8.60;99.90
50606;DHT22;36557;53.572;10.170;2023-01-05T03:07:31;8.60;99.90
50606;DHT22;36557;53.572;10.170;2023-01-05T03:09:59;8.50;99.90
50606;DHT22;36557;53.572;10.170;2023-01-05T03:12:46;8.50;99.90
50606;DHT22;36557;53.572;10.170;2023-01-05T03:15:33;8.50;99.90
50606;DHT22;36557;53.572;10.170;2023-01-05T03:18:06;8.50;99.90
50606;DHT22;36557;53.572;10.170;2023-01-05T03:20:34;8.50;99.90
50606;DHT22;36557;53.572;10.170;2023-01-05T03:23:04;8.50;99.90
50606;DHT22;36557;53.572;10.170;2023-01-05T03:25:50;8.50;99.90
50606;DHT22;36557;53.572;10.170;2023-01-05T03:28:49;8.50;99.90
50606;DHT22;36557;53.572;10.170;2023-01-05T03:31:38;8.40;99.90
50606;DHT22;36557;53.572;10.170;2023-01-05T03:34:52;8.50;99.90
50606;DHT22;36557;53.572;10.170;2023-01-05T03:37:42;8.40;99.90
50606;DHT22;36557;53.572;10.170;2023-01-05T03:40:15;8.40;99.90
50606;DHT22;36557;53.572;10.170;2023-01-05T03:42:44;8.30;99.90
50606;DHT22;36557;53.572;10.170;2023-01-05T03:45:11;8.40;99.90
50606;DHT22;36557;53.572;10.170;2023-01-05T03:47:37;8.40;99.90
50606;DHT22;36557;53.572;10.170;2023-01-05T03:50:03;8.40;99.90
50606;DHT22;36557;53.572;10.170;2023-01-05T03:52:29;8.30;99.90
50606;DHT22;36557;53.572;10.170;2023-01-05T03:54:55;8.40;99.90
50606;DHT22;36557;53.572;10.170;2023-01-05T03:57:20;8.40;99.90
50606;DHT22;36557;53.572;10.170;2023-01-05T03:59:46;8.40;99.90
50606;DHT22;36557;53.572;10.170;2023-01-05T04:02:12;8.40;99.90
50606;DHT22;36557;53.572;10.170;2023-01-05T04:04:38;8.40;99.90
50606;DHT22;36557;53.572;10.170;2023-01-05T04:07:03;8.40;99.90
50606;DHT22;36557;53.572;10.170;2023-01-05T04:09:29;8.40;99.90
50606;DHT22;36557;53.572;10.170;2023-01-05T04:11:55;8.40;99.90
50606;DHT22;36557;53.572;10.170;2023-01-05T04:14:20;8.40;99.90
50606;DHT22;36557;53.572;10.170;2023-01-05T04:16:46;8.40;99.90
50606;DHT22;36557;53.572;10.170;2023-01-05T04:19:12;8.40;99.90
50606;DHT22;36557;53.572;10.170;2023-01-05T04:21:37;8.20;99.90
50606;DHT22;36557;53.572;10.170;2023-01-05T04:24:03;8.20;99.90
50606;DHT22;36557;53.572;10.170;2023-01-05T04:26:29;8.30;99.90
50606;DHT22;36557;53.572;10.170;2023-01-05T04:28:54;8.20;99.90
50606;DHT22;36557;53.572;10.170;2023-01-05T04:31:20;8.10;99.90
50606;DHT22;36557;53.572;10.170;2023-01-05T04:33:46;8.10;99.90
50606;DHT22;36557;53.572;10.170;2023-01-05T04:36:11;8.00;99.90
50606;DHT22;36557;53.572;10.170;2023-01-05T04:38:37;8.00;99.90
50606;DHT22;36557;53.572;10.170;2023-01-05T04:41:03;8.00;99.90
50606;DHT22;36557;53.572;10.170;2023-01-05T04:43:29;8.00;99.90
50606;DHT22;36557;53.572;10.170;2023-01-05T04:45:54;8.00;99.90
50606;DHT22;36557;53.572;10.170;2023-01-05T04:48:20;8.00;99.90
50606;DHT22;36557;53.572;10.170;2023-01-05T04:50:54;7.90;99.90
50606;DHT22;36557;53.572;10.170;2023-01-05T04:53:20;7.80;99.90
50606;DHT22;36557;53.572;10.170;2023-01-05T04:55:47;7.80;99.90
50606;DHT22;36557;53.572;10.170;2023-01-05T04:58:12;7.80;99.90
50606;DHT22;36557;53.572;10.170;2023-01-05T05:00:38;7.80;99.90
50606;DHT22;36557;53.572;10.170;2023-01-05T05:03:04;7.80;99.90
50606;DHT22;36557;53.572;10.170;2023-01-05T05:05:29;7.90;99.90
50606;DHT22;36557;53.572;10.170;2023-01-05T05:07:55;7.90;99.90
50606;DHT22;36557;53.572;10.170;2023-01-05T05:10:21;7.90;99.90
50606;DHT22;36557;53.572;10.170;2023-01-05T05:12:47;7.90;99.90
50606;DHT22;36557;53.572;10.170;2023-01-05T05:15:12;7.80;99.90
50606;DHT22;36557;53.572;10.170;2023-01-05T05:17:38;7.80;99.90
50606;DHT22;36557;53.572;10.170;2023-01-05T05:20:04;7.80;99.90
50606;DHT22;36557;53.572;10.170;2023-01-05T05:22:30;7.90;99.90
50606;DHT22;36557;53.572;10.170;2023-01-05T05:24:56;7.80;99.90
50606;DHT22;36557;53.572;10.170;2023-01-05T05:27:22;7.90;99.90
50606;DHT22;36557;53.572;10.170;2023-01-05T05:29:47;8.00;99.90
50606;DHT22;36557;53.572;10.170;2023-01-05T05:32:13;8.00;99.90
50606;DHT22;36557;53.572;10.170;2023-01-05T05:34:39;8.00;99.90
50606;DHT22;36557;53.572;10.170;2023-01-05T05:37:04;8.00;99.90
50606;DHT22;36557;53.572;10.170;2023-01-05T05:39:31;7.90;99.90
50606;DHT22;36557;53.572;10.170;2023-01-05T05:41:57;7.90;99.90
50606;DHT22;36557;53.572;10.170;2023-01-05T05:44:22;8.00;99.90
50606;DHT22;36557;53.572;10.170;2023-01-05T05:46:48;8.00;99.90
50606;DHT22;36557;53.572;10.170;2023-01-05T05:49:14;8.00;99.90
50606;DHT22;36557;53.572;10.170;2023-01-05T05:51:39;8.00;99.90
50606;DHT22;36557;53.572;10.170;2023-01-05T05:54:05;8.00;99.90
50606;DHT22;36557;53.572;10.170;2023-01-05T05:56:31;7.90;99.90
50606;DHT22;36557;53.572;10.170;2023-01-05T05:58:57;8.00;99.90
50606;DHT22;36557;53.572;10.170;2023-01-05T06:01:22;8.00;99.90
50606;DHT22;36557;53.572;10.170;2023-01-05T06:03:48;8.00;99.90
50606;DHT22;36557;53.572;10.170;2023-01-05T06:06:14;8.00;99.90
50606;DHT22;36557;53.572;10.170;2023-01-05T06:08:39;8.00;99.90
50606;DHT22;36557;53.572;10.170;2023-01-05T06:11:05;8.00;99.90
50606;DHT22;36557;53.572;10.170;2023-01-05T06:13:32;8.00;99.90
50606;DHT22;36557;53.572;10.170;2023-01-05T06:15:58;8.00;99.90
50606;DHT22;36557;53.572;10.170;2023-01-05T06:18:23;8.00;99.90
50606;DHT22;36557;53.572;10.170;2023-01-05T06:20:49;8.00;99.90
50606;DHT22;36557;53.572;10.170;2023-01-05T06:23:15;8.10;99.90
50606;DHT22;36557;53.572;10.170;2023-01-05T06:25:41;8.00;99.90
50606;DHT22;36557;53.572;10.170;2023-01-05T06:28:06;8.00;99.90
50606;DHT22;36557;53.572;10.170;2023-01-05T06:30:32;8.00;99.90
50606;DHT22;36557;53.572;10.170;2023-01-05T06:32:58;8.00;99.90
50606;DHT22;36557;53.572;10.170;2023-01-05T06:35:23;8.00;99.90
50606;DHT22;36557;53.572;10.170;2023-01-05T06:37:49;8.00;99.90
50606;DHT22;36557;53.572;10.170;2023-01-05T06:40:15;8.00;99.90
50606;DHT22;36557;53.572;10.170;2023-01-05T06:42:41;8.00;99.90
50606;DHT22;36557;53.572;10.170;2023-01-05T06:45:09;8.00;99.90
50606;DHT22;36557;53.572;10.170;2023-01-05T06:47:36;8.00;99.90
50606;DHT22;36557;53.572;10.170;2023-01-05T06:50:02;8.00;99.90
50606;DHT22;36557;53.572;10.170;2023-01-05T06:52:27;8.00;99.90
50606;DHT22;36557;53.572;10.170;2023-01-05T06:54:53;8.00;99.90
50606;DHT22;36557;53.572;10.170;2023-01-05T06:57:19;8.00;99.90
50606;DHT22;36557;53.572;10.170;2023-01-05T06:59:45;8.00;99.90
50606;DHT22;36557;53.572;10.170;2023-01-05T07:02:14;8.00;99.90
50606;DHT22;36557;53.572;10.170;2023-01-05T07:04:41;8.00;99.90
50606;DHT22;36557;53.572;10.170;2023-01-05T07:07:11;8.00;99.90
50606;DHT22;36557;53.572;10.170;2023-01-05T07:09:37;8.00;99.90
50606;DHT22;36557;53.572;10.170;2023-01-05T07:12:03;8.00;99.90
50606;DHT22;36557;53.572;10.170;2023-01-05T07:14:29;8.00;99.90
50606;DHT22;36557;53.572;10.170;2023-01-05T07:16:54;8.00;99.90
50606;DHT22;36557;53.572;10.170;2023-01-05T07:19:20;8.00;99.90
50606;DHT22;36557;53.572;10.170;2023-01-05T07:21:46;8.00;99.90
50606;DHT22;36557;53.572;10.170;2023-01-05T07:24:11;8.00;99.90
50606;DHT22;36557;53.572;10.170;2023-01-05T07:26:37;8.00;99.90
50606;DHT22;36557;53.572;10.170;2023-01-05T07:29:03;8.10;99.90
50606;DHT22;36557;53.572;10.170;2023-01-05T07:31:28;8.10;99.90
50606;DHT22;36557;53.572;10.170;2023-01-05T07:33:54;8.10;99.90
50606;DHT22;36557;53.572;10.170;2023-01-05T07:36:20;8.10;99.90
50606;DHT22;36557;53.572;10.170;2023-01-05T07:38:45;8.10;99.90
50606;DHT22;36557;53.572;10.170;2023-01-05T07:41:11;8.10;99.90
50606;DHT22;36557;53.572;10.170;2023-01-05T07:43:37;8.10;99.90
50606;DHT22;36557;53.572;10.170;2023-01-05T07:46:03;8.10;99.90
50606;DHT22;36557;53.572;10.170;2023-01-05T07:48:29;8.10;99.90
50606;DHT22;36557;53.572;10.170;2023-01-05T07:51:02;8.10;99.90
50606;DHT22;36557;53.572;10.170;2023-01-05T07:53:30;8.10;99.90
50606;DHT22;36557;53.572;10.170;2023-01-05T07:55:58;8.10;99.90
50606;DHT22;36557;53.572;10.170;2023-01-05T07:58:24;8.10;99.90
50606;DHT22;36557;53.572;10.170;2023-01-05T08:00:50;8.10;99.90
50606;DHT22;36557;53.572;10.170;2023-01-05T08:03:16;8.10;99.90
50606;DHT22;36557;53.572;10.170;2023-01-05T08:05:41;8.10;99.90
50606;DHT22;36557;53.572;10.170;2023-01-05T08:08:07;8.00;99.90
50606;DHT22;36557;53.572;10.170;2023-01-05T08:10:33;8.10;99.90
50606;DHT22;36557;53.572;10.170;2023-01-05T08:13:06;8.10;99.90
50606;DHT22;36557;53.572;10.170;2023-01-05T08:15:52;8.10;99.90
50606;DHT22;36557;53.572;10.170;2023-01-05T08:18:19;8.10;99.90
50606;DHT22;36557;53.572;10.170;2023-01-05T08:20:55;8.10;99.90
50606;DHT22;36557;53.572;10.170;2023-01-05T08:23:22;8.10;99.90
50606;DHT22;36557;53.572;10.170;2023-01-05T08:25:48;8.10;99.90
50606;DHT22;36557;53.572;10.170;2023-01-05T08:28:14;8.20;99.90
50606;DHT22;36557;53.572;10.170;2023-01-05T08:30:40;8.10;99.90
50606;DHT22;36557;53.572;10.170;2023-01-05T08:33:05;8.10;99.90
50606;DHT22;36557;53.572;10.170;2023-01-05T08:35:31;8.10;99.90
50606;DHT22;36557;53.572;10.170;2023-01-05T08:37:57;8.10;99.90
50606;DHT22;36557;53.572;10.170;2023-01-05T08:40:23;8.10;99.90
50606;DHT22;36557;53.572;10.170;2023-01-05T08:42:50;8.10;99.90
50606;DHT22;36557;53.572;10.170;2023-01-05T08:45:16;8.10;99.90
50606;DHT22;36557;53.572;10.170;2023-01-05T08:47:42;8.00;99.90
50606;DHT22;36557;53.572;10.170;2023-01-05T08:50:09;7.90;99.90
50606;DHT22;36557;53.572;10.170;2023-01-05T08:52:36;7.80;99.90
50606;DHT22;36557;53.572;10.170;2023-01-05T08:55:03;7.80;99.90
50606;DHT22;36557;53.572;10.170;2023-01-05T08:57:30;7.80;99.90
50606;DHT22;36557;53.572;10.170;2023-01-05T08:59:56;7.80;99.90
50606;DHT22;36557;53.572;10.170;2023-01-05T09:02:21;7.80;99.90
50606;DHT22;36557;53.572;10.170;2023-01-05T09:04:47;7.70;99.90
50606;DHT22;36557;53.572;10.170;2023-01-05T09:07:13;7.70;99.90
50606;DHT22;36557;53.572;10.170;2023-01-05T09:09:39;7.60;99.90
50606;DHT22;36557;53.572;10.170;2023-01-05T09:12:05;7.60;99.90
50606;DHT22;36557;53.572;10.170;2023-01-05T09:14:31;7.60;99.90
50606;DHT22;36557;53.572;10.170;2023-01-05T09:16:56;7.70;99.90
50606;DHT22;36557;53.572;10.170;2023-01-05T09:19:22;7.70;99.90
50606;DHT22;36557;53.572;10.170;2023-01-05T09:21:48;7.70;99.90
50606;DHT22;36557;53.572;10.170;2023-01-05T09:24:14;7.70;99.90
50606;DHT22;36557;53.572;10.170;2023-01-05T09:26:41;7.60;99.90
50606;DHT22;36557;53.572;10.170;2023-01-05T09:29:07;7.60;99.90
50606;DHT22;36557;53.572;10.170;2023-01-05T09:31:33;7.60;99.90
50606;DHT22;36557;53.572;10.170;2023-01-05T09:33:59;7.60;99.90
50606;DHT22;36557;53.572;10.170;2023-01-05T09:36:25;7.60;99.90
50606;DHT22;36557;53.572;10.170;2023-01-05T09:38:52;7.50;99.90
50606;DHT22;36557;53.572;10.170;2023-01-05T09:43:59;7.40;99.90
50606;DHT22;36557;53.572;10.170;2023-01-05T09:46:33;7.40;99.90
50606;DHT22;36557;53.572;10.170;2023-01-05T09:49:02;7.50;99.90
50606;DHT22;36557;53.572;10.170;2023-01-05T09:51:29;7.50;99.90
50606;DHT22;36557;53.572;10.170;2023-01-05T09:53:55;7.60;99.90
50606;DHT22;36557;53.572;10.170;2023-01-05T09:58:51;7.70;99.90
50606;DHT22;36557;53.572;10.170;2023-01-05T10:01:18;7.80;99.90
50606;DHT22;36557;53.572;10.170;2023-01-05T10:03:55;7.80;99.90
50606;DHT22;36557;53.572;10.170;2023-01-05T10:06:27;7.80;99.90
50606;DHT22;36557;53.572;10.170;2023-01-05T10:08:55;7.80;99.90
50606;DHT22;36557;53.572;10.170;2023-01-05T10:11:30;7.70;99.90
50606;DHT22;36557;53.572;10.170;2023-01-05T10:14:31;7.80;99.90
50606;DHT22;36557;53.572;10.170;2023-01-05T10:16:59;7.80;99.90
50606;DHT22;36557;53.572;10.170;2023-01-05T10:19:27;7.80;99.90
50606;DHT22;36557;53.572;10.170;2023-01-05T10:27:38;7.80;99.90
50606;DHT22;36557;53.572;10.170;2023-01-05T10:30:40;7.80;99.90
50606;DHT22;36557;53.572;10.170;2023-01-05T10:33:23;7.80;99.90
50606;DHT22;36557;53.572;10.170;2023-01-05T10:41:29;7.90;99.90
50606;DHT22;36557;53.572;10.170;2023-01-05T10:46:47;8.00;99.90
50606;DHT22;36557;53.572;10.170;2023-01-05T10:49:29;8.10;99.90
50606;DHT22;36557;53.572;10.170;2023-01-05T10:51:58;8.00;99.90
50606;DHT22;36557;53.572;10.170;2023-01-05T10:54:49;8.10;99.90
50606;DHT22;36557;53.572;10.170;2023-01-05T10:59:58;8.10;99.90
50606;DHT22;36557;53.572;10.170;2023-01-05T11:02:30;8.10;99.90
50606;DHT22;36557;53.572;10.170;2023-01-05T11:07:57;8.10;99.90
50606;DHT22;36557;53.572;10.170;2023-01-05T11:10:28;8.10;99.90
50606;DHT22;36557;53.572;10.170;2023-01-05T11:13:15;8.00;99.90
50606;DHT22;36557;53.572;10.170;2023-01-05T11:15:53;8.00;99.90
50606;DHT22;36557;53.572;10.170;2023-01-05T11:18:30;8.10;99.90
50606;DHT22;36557;53.572;10.170;2023-01-05T11:21:49;8.20;99.90
50606;DHT22;36557;53.572;10.170;2023-01-05T11:23:55;8.30;99.90
50606;DHT22;36557;53.572;10.170;2023-01-05T11:31:36;8.40;99.90
50606;DHT22;36557;53.572;10.170;2023-01-05T11:34:08;8.50;99.90
50606;DHT22;36557;53.572;10.170;2023-01-05T11:36:37;8.60;99.90
50606;DHT22;36557;53.572;10.170;2023-01-05T11:39:04;8.70;99.90
50606;DHT22;36557;53.572;10.170;2023-01-05T11:41:29;8.80;99.90
50606;DHT22;36557;53.572;10.170;2023-01-05T11:43:55;8.70;99.90
50606;DHT22;36557;53.572;10.170;2023-01-05T11:46:24;8.70;99.90
50606;DHT22;36557;53.572;10.170;2023-01-05T11:48:54;8.70;99.90
50606;DHT22;36557;53.572;10.170;2023-01-05T11:51:47;8.60;99.90
50606;DHT22;36557;53.572;10.170;2023-01-05T11:57:26;8.30;99.90
50606;DHT22;36557;53.572;10.170;2023-01-05T11:59:53;8.30;99.90
50606;DHT22;36557;53.572;10.170;2023-01-05T12:02:50;8.30;99.90
50606;DHT22;36557;53.572;10.170;2023-01-05T12:10:55;8.10;99.90
50606;DHT22;36557;53.572;10.170;2023-01-05T12:19:37;8.10;99.90
50606;DHT22;36557;53.572;10.170;2023-01-05T12:22:18;8.10;99.90
50606;DHT22;36557;53.572;10.170;2023-01-05T12:41:24;8.20;99.90
50606;DHT22;36557;53.572;10.170;2023-01-05T12:46:48;8.20;99.90
50606;DHT22;36557;53.572;10.170;2023-01-05T12:49:23;8.20;99.90
50606;DHT22;36557;53.572;10.170;2023-01-05T12:52:17;8.20;99.90
50606;DHT22;36557;53.572;10.170;2023-01-05T12:58:03;8.10;99.90
50606;DHT22;36557;53.572;10.170;2023-01-05T13:00:34;8.00;99.90
50606;DHT22;36557;53.572;10.170;2023-01-05T13:03:04;8.00;99.90
50606;DHT22;36557;53.572;10.170;2023-01-05T13:11:14;7.80;99.90
50606;DHT22;36557;53.572;10.170;2023-01-05T13:14:03;7.80;99.90
50606;DHT22;36557;53.572;10.170;2023-01-05T13:16:40;7.80;99.90
50606;DHT22;36557;53.572;10.170;2023-01-05T13:22:03;7.90;99.90
50606;DHT22;36557;53.572;10.170;2023-01-05T13:24:37;7.90;99.90
50606;DHT22;36557;53.572;10.170;2023-01-05T13:27:03;7.90;99.90
50606;DHT22;36557;53.572;10.170;2023-01-05T13:29:33;7.90;99.90
50606;DHT22;36557;53.572;10.170;2023-01-05T13:38:50;7.90;99.90
50606;DHT22;36557;53.572;10.170;2023-01-05T13:51:04;7.80;99.90
50606;DHT22;36557;53.572;10.170;2023-01-05T13:53:26;7.70;99.90
50606;DHT22;36557;53.572;10.170;2023-01-05T13:56:05;7.70;99.90
50606;DHT22;36557;53.572;10.170;2023-01-05T13:58:41;7.70;99.90
50606;DHT22;36557;53.572;10.170;2023-01-05T14:01:14;7.70;99.90
50606;DHT22;36557;53.572;10.170;2023-01-05T14:03:50;7.70;99.90
50606;DHT22;36557;53.572;10.170;2023-01-05T14:06:23;7.70;99.90
50606;DHT22;36557;53.572;10.170;2023-01-05T14:08:53;7.70;99.90
50606;DHT22;36557;53.572;10.170;2023-01-05T14:11:23;7.60;99.90
50606;DHT22;36557;53.572;10.170;2023-01-05T14:14:24;7.60;99.90
50606;DHT22;36557;53.572;10.170;2023-01-05T14:16:51;7.60;99.90
50606;DHT22;36557;53.572;10.170;2023-01-05T14:22:22;7.60;99.90
50606;DHT22;36557;53.572;10.170;2023-01-05T14:24:48;7.60;99.90
50606;DHT22;36557;53.572;10.170;2023-01-05T14:27:19;7.60;99.90
50606;DHT22;36557;53.572;10.170;2023-01-05T14:34:59;7.60;99.90
50606;DHT22;36557;53.572;10.170;2023-01-05T14:39:58;7.60;99.90
50606;DHT22;36557;53.572;10.170;2023-01-05T14:42:36;7.60;99.90
50606;DHT22;36557;53.572;10.170;2023-01-05T14:45:05;7.60;99.90
50606;DHT22;36557;53.572;10.170;2023-01-05T14:47:55;7.70;99.90
50606;DHT22;36557;53.572;10.170;2023-01-05T14:50:38;7.60;99.90
50606;DHT22;36557;53.572;10.170;2023-01-05T14:53:12;7.60;99.90
50606;DHT22;36557;53.572;10.170;2023-01-05T14:58:48;7.60;99.90
50606;DHT22;36557;53.572;10.170;2023-01-05T15:26:15;7.30;99.90
50606;DHT22;36557;53.572;10.170;2023-01-05T15:34:43;7.20;99.90
50606;DHT22;36557;53.572;10.170;2023-01-05T15:37:22;7.20;99.90
50606;DHT22;36557;53.572;10.170;2023-01-05T15:39:52;7.20;99.90
50606;DHT22;36557;53.572;10.170;2023-01-05T15:42:25;7.20;99.90
50606;DHT22;36557;53.572;10.170;2023-01-05T15:44:53;7.20;99.90
50606;DHT22;36557;53.572;10.170;2023-01-05T15:47:22;7.20;99.90
50606;DHT22;36557;53.572;10.170;2023-01-05T15:49:49;7.20;99.90
50606;DHT22;36557;53.572;10.170;2023-01-05T15:52:26;7.20;99.90
50606;DHT22;36557;53.572;10.170;2023-01-05T15:57:36;7.20;99.90
50606;DHT22;36557;53.572;10.170;2023-01-05T16:00:17;7.20;99.90
50606;DHT22;36557;53.572;10.170;2023-01-05T16:02:43;7.20;99.90
50606;DHT22;36557;53.572;10.170;2023-01-05T16:05:17;7.20;99.90
50606;DHT22;36557;53.572;10.170;2023-01-05T16:07:58;7.20;99.90
50606;DHT22;36557;53.572;10.170;2023-01-05T16:13:00;7.20;99.90
50606;DHT22;36557;53.572;10.170;2023-01-05T16:15:31;7.20;99.90
50606;DHT22;36557;53.572;10.170;2023-01-05T16:17:57;7.20;99.90
50606;DHT22;36557;53.572;10.170;2023-01-05T16:20:24;7.20;99.90
50606;DHT22;36557;53.572;10.170;2023-01-05T16:23:16;7.20;99.90
50606;DHT22;36557;53.572;10.170;2023-01-05T16:25:56;7.20;99.90
50606;DHT22;36557;53.572;10.170;2023-01-05T16:28:23;7.20;99.90
50606;DHT22;36557;53.572;10.170;2023-01-05T16:30:50;7.10;99.90
50606;DHT22;36557;53.572;10.170;2023-01-05T16:33:28;7.10;99.90
50606;DHT22;36557;53.572;10.170;2023-01-05T16:36:20;7.10;99.90
50606;DHT22;36557;53.572;10.170;2023-01-05T16:38:47;7.00;99.90
50606;DHT22;36557;53.572;10.170;2023-01-05T16:48:48;7.00;99.90
50606;DHT22;36557;53.572;10.170;2023-01-05T16:51:19;7.00;99.90
50606;DHT22;36557;53.572;10.170;2023-01-05T16:53:50;7.00;99.90
50606;DHT22;36557;53.572;10.170;2023-01-05T16:58:44;7.00;99.90
50606;DHT22;36557;53.572;10.170;2023-01-05T17:03:43;7.00;99.90
50606;DHT22;36557;53.572;10.170;2023-01-05T17:06:29;7.00;99.90
50606;DHT22;36557;53.572;10.170;2023-01-05T17:08:58;7.00;99.90
50606;DHT22;36557;53.572;10.170;2023-01-05T17:11:33;7.10;99.90
50606;DHT22;36557;53.572;10.170;2023-01-05T17:13:59;7.00;99.90
50606;DHT22;36557;53.572;10.170;2023-01-05T17:16:26;7.10;99.90
50606;DHT22;36557;53.572;10.170;2023-01-05T17:18:52;7.00;99.90
50606;DHT22;36557;53.572;10.170;2023-01-05T17:21:20;7.00;99.90
50606;DHT22;36557;53.572;10.170;2023-01-05T17:23:53;7.00;99.90
50606;DHT22;36557;53.572;10.170;2023-01-05T17:26:41;7.00;99.90
50606;DHT22;36557;53.572;10.170;2023-01-05T17:29:19;7.00;99.90
50606;DHT22;36557;53.572;10.170;2023-01-05T17:31:45;7.00;99.90
50606;DHT22;36557;53.572;10.170;2023-01-05T17:34:11;7.00;99.90
50606;DHT22;36557;53.572;10.170;2023-01-05T17:36:36;7.00;99.90
50606;DHT22;36557;53.572;10.170;2023-01-05T17:39:03;7.00;99.90
50606;DHT22;36557;53.572;10.170;2023-01-05T17:41:29;6.90;99.90
50606;DHT22;36557;53.572;10.170;2023-01-05T17:43:54;7.00;99.90
50606;DHT22;36557;53.572;10.170;2023-01-05T17:46:26;7.00;99.90
50606;DHT22;36557;53.572;10.170;2023-01-05T17:48:53;7.00;99.90
50606;DHT22;36557;53.572;10.170;2023-01-05T17:51:19;6.90;99.90
50606;DHT22;36557;53.572;10.170;2023-01-05T17:53:45;6.90;99.90
50606;DHT22;36557;53.572;10.170;2023-01-05T17:56:11;6.80;99.90
50606;DHT22;36557;53.572;10.170;2023-01-05T17:58:37;6.80;99.90
50606;DHT22;36557;53.572;10.170;2023-01-05T18:01:04;6.80;99.90
50606;DHT22;36557;53.572;10.170;2023-01-05T18:03:31;6.80;99.90
50606;DHT22;36557;53.572;10.170;2023-01-05T18:05:59;6.80;99.90
50606;DHT22;36557;53.572;10.170;2023-01-05T18:08:25;6.80;99.90
50606;DHT22;36557;53.572;10.170;2023-01-05T18:10:51;6.80;99.90
50606;DHT22;36557;53.572;10.170;2023-01-05T18:13:17;6.70;99.90
50606;DHT22;36557;53.572;10.170;2023-01-05T18:15:45;6.70;99.90
50606;DHT22;36557;53.572;10.170;2023-01-05T18:18:12;6.70;99.90
50606;DHT22;36557;53.572;10.170;2023-01-05T18:20:39;6.70;99.90
50606;DHT22;36557;53.572;10.170;2023-01-05T18:23:06;6.70;99.90
50606;DHT22;36557;53.572;10.170;2023-01-05T18:25:33;6.60;99.90
50606;DHT22;36557;53.572;10.170;2023-01-05T18:27:59;6.50;99.90
50606;DHT22;36557;53.572;10.170;2023-01-05T18:30:25;6.50;99.90
50606;DHT22;36557;53.572;10.170;2023-01-05T18:32:51;6.40;99.90
50606;DHT22;36557;53.572;10.170;2023-01-05T18:35:17;6.30;99.90
50606;DHT22;36557;53.572;10.170;2023-01-05T18:37:43;6.20;99.90
50606;DHT22;36557;53.572;10.170;2023-01-05T18:40:10;6.20;99.90
50606;DHT22;36557;53.572;10.170;2023-01-05T18:42:36;6.10;99.90